sensor_id;sensor_type;location;lat;lon;timestamp;temperature;humidity
48206;DHT22;33995;48.202;16.260;2023-07-29T00:02:23;21.50;99.90
48206;DHT22;33995;48.202;16.260;2023-07-29T00:04:58;21.50;99.90
48206;DHT22;33995;48.202;16.260;2023-07-29T00:07:36;21.40;99.90
48206;DHT22;33995;48.202;16.260;2023-07-29T00:10:11;21.40;99.90
48206;DHT22;33995;48.202;16.260;2023-07-29T00:12:40;21.40;99.90
48206;DHT22;33995;48.202;16.260;2023-07-29T00:15:11;21.40;99.90
48206;DHT22;33995;48.202;16.260;2023-07-29T00:17:43;21.30;99.90
48206;DHT22;33995;48.202;16.260;2023-07-29T00:20:16;21.30;99.90
48206;DHT22;33995;48.202;16.260;2023-07-29T00:22:50;21.40;99.90
48206;DHT22;33995;48.202;16.260;2023-07-29T00:25:24;21.30;99.90
48206;DHT22;33995;48.202;16.260;2023-07-29T00:27:56;21.30;99.90
48206;DHT22;33995;48.202;16.260;2023-07-29T00:30:26;21.30;99.90
48206;DHT22;33995;48.202;16.260;2023-07-29T00:32:55;21.30;99.90
48206;DHT22;33995;48.202;16.260;2023-07-29T00:35:25;21.30;99.90
48206;DHT22;33995;48.202;16.260;2023-07-29T00:38:02;21.30;99.90
48206;DHT22;33995;48.202;16.260;2023-07-29T00:40:36;21.30;99.90
48206;DHT22;33995;48.202;16.260;2023-07-29T00:43:18;21.30;99.90
48206;DHT22;33995;48.202;16.260;2023-07-29T00:45:51;21.30;99.90
48206;DHT22;33995;48.202;16.260;2023-07-29T00:48:27;21.30;99.90
48206;DHT22;33995;48.202;16.260;2023-07-29T00:50:59;21.30;99.90
48206;DHT22;33995;48.202;16.260;2023-07-29T00:53:29;21.30;99.90
48206;DHT22;33995;48.202;16.260;2023-07-29T00:56:04;21.20;99.90
48206;DHT22;33995;48.202;16.260;2023-07-29T00:58:34;21.30;99.90
48206;DHT22;33995;48.202;16.260;2023-07-29T01:01:06;21.20;99.90
48206;DHT22;33995;48.202;16.260;2023-07-29T01:03:36;21.30;99.90
48206;DHT22;33995;48.202;16.260;2023-07-29T01:09:33;21.30;99.90
48206;DHT22;33995;48.202;16.260;2023-07-29T01:12:42;21.20;99.90
48206;DHT22;33995;48.202;16.260;2023-07-29T01:18:36;21.20;99.90
48206;DHT22;33995;48.202;16.260;2023-07-29T01:21:11;21.20;99.90
48206;DHT22;33995;48.202;16.260;2023-07-29T01:23:46;21.20;99.90
48206;DHT22;33995;48.202;16.260;2023-07-29T01:26:18;21.20;99.90
48206;DHT22;33995;48.202;16.260;2023-07-29T01:28:52;21.10;99.90
48206;DHT22;33995;48.202;16.260;2023-07-29T01:31:43;21.10;99.90
48206;DHT22;33995;48.202;16.260;2023-07-29T01:34:41;21.10;99.90
48206;DHT22;33995;48.202;16.260;2023-07-29T01:37:22;21.10;99.90
48206;DHT22;33995;48.202;16.260;2023-07-29T01:39:56;21.10;99.90
48206;DHT22;33995;48.202;16.260;2023-07-29T01:42:27;21.10;99.90
48206;DHT22;33995;48.202;16.260;2023-07-29T01:45:04;21.00;99.90
48206;DHT22;33995;48.202;16.260;2023-07-29T01:47:36;21.00;99.90
48206;DHT22;33995;48.202;16.260;2023-07-29T01:50:08;21.00;99.90
48206;DHT22;33995;48.202;16.260;2023-07-29T01:52:38;21.00;99.90
48206;DHT22;33995;48.202;16.260;2023-07-29T01:55:11;21.00;99.90
48206;DHT22;33995;48.202;16.260;2023-07-29T01:57:42;21.00;99.90
48206;DHT22;33995;48.202;16.260;2023-07-29T02:00:20;21.00;99.90
48206;DHT22;33995;48.202;16.260;2023-07-29T02:02:56;21.00;99.90
48206;DHT22;33995;48.202;16.260;2023-07-29T02:05:32;21.10;99.90
48206;DHT22;33995;48.202;16.260;2023-07-29T02:08:05;21.10;99.90
48206;DHT22;33995;48.202;16.260;2023-07-29T02:10:36;21.10;99.90
48206;DHT22;33995;48.202;16.260;2023-07-29T02:13:05;21.10;99.90
48206;DHT22;33995;48.202;16.260;2023-07-29T02:15:47;21.10;99.90
48206;DHT22;33995;48.202;16.260;2023-07-29T02:18:19;21.00;99.90
48206;DHT22;33995;48.202;16.260;2023-07-29T02:21:01;21.00;99.90
48206;DHT22;33995;48.202;16.260;2023-07-29T02:23:33;21.00;99.90
48206;DHT22;33995;48.202;16.260;2023-07-29T02:26:17;21.00;99.90
48206;DHT22;33995;48.202;16.260;2023-07-29T02:28:50;21.00;99.90
48206;DHT22;33995;48.202;16.260;2023-07-29T02:31:32;21.00;99.90
48206;DHT22;33995;48.202;16.260;2023-07-29T02:34:03;21.00;99.90
48206;DHT22;33995;48.202;16.260;2023-07-29T02:36:40;21.00;99.90
48206;DHT22;33995;48.202;16.260;2023-07-29T02:39:22;21.00;99.90
48206;DHT22;33995;48.202;16.260;2023-07-29T02:41:59;21.00;99.90
48206;DHT22;33995;48.202;16.260;2023-07-29T02:44:31;21.00;99.90
48206;DHT22;33995;48.202;16.260;2023-07-29T02:47:09;21.00;99.90
48206;DHT22;33995;48.202;16.260;2023-07-29T02:49:43;21.00;99.90
48206;DHT22;33995;48.202;16.260;2023-07-29T02:52:19;21.00;99.90
48206;DHT22;33995;48.202;16.260;2023-07-29T02:54:54;21.00;99.90
48206;DHT22;33995;48.202;16.260;2023-07-29T02:57:25;20.90;99.90
48206;DHT22;33995;48.202;16.260;2023-07-29T02:59:55;20.90;99.90
48206;DHT22;33995;48.202;16.260;2023-07-29T03:02:25;20.80;99.90
48206;DHT22;33995;48.202;16.260;2023-07-29T03:04:57;20.80;99.90
48206;DHT22;33995;48.202;16.260;2023-07-29T03:07:45;20.80;99.90
48206;DHT22;33995;48.202;16.260;2023-07-29T03:10:17;20.80;99.90
48206;DHT22;33995;48.202;16.260;2023-07-29T03:12:58;20.80;99.90
48206;DHT22;33995;48.202;16.260;2023-07-29T03:15:31;20.70;99.90
48206;DHT22;33995;48.202;16.260;2023-07-29T03:18:02;20.70;99.90
48206;DHT22;33995;48.202;16.260;2023-07-29T03:20:34;20.80;99.90
48206;DHT22;33995;48.202;16.260;2023-07-29T03:23:06;20.70;99.90
48206;DHT22;33995;48.202;16.260;2023-07-29T03:25:43;20.70;99.90
48206;DHT22;33995;48.202;16.260;2023-07-29T03:28:12;20.60;99.90
48206;DHT22;33995;48.202;16.260;2023-07-29T03:30:49;20.60;99.90
48206;DHT22;33995;48.202;16.260;2023-07-29T03:33:25;20.60;99.90
48206;DHT22;33995;48.202;16.260;2023-07-29T03:35:59;20.60;99.90
48206;DHT22;33995;48.202;16.260;2023-07-29T03:38:31;20.60;99.90
48206;DHT22;33995;48.202;16.260;2023-07-29T03:41:07;20.60;99.90
48206;DHT22;33995;48.202;16.260;2023-07-29T03:43:36;20.50;99.90
48206;DHT22;33995;48.202;16.260;2023-07-29T03:46:14;20.50;99.90
48206;DHT22;33995;48.202;16.260;2023-07-29T03:48:52;20.50;99.90
48206;DHT22;33995;48.202;16.260;2023-07-29T03:51:24;20.40;99.90
48206;DHT22;33995;48.202;16.260;2023-07-29T03:53:55;20.40;99.90
48206;DHT22;33995;48.202;16.260;2023-07-29T03:56:27;20.40;99.90
48206;DHT22;33995;48.202;16.260;2023-07-29T03:59:03;20.30;99.90
48206;DHT22;33995;48.202;16.260;2023-07-29T04:01:33;20.30;99.90
48206;DHT22;33995;48.202;16.260;2023-07-29T04:04:04;20.30;99.90
48206;DHT22;33995;48.202;16.260;2023-07-29T04:06:39;20.20;99.90
48206;DHT22;33995;48.202;16.260;2023-07-29T04:09:09;20.20;99.90
48206;DHT22;33995;48.202;16.260;2023-07-29T04:11:39;20.20;99.90
48206;DHT22;33995;48.202;16.260;2023-07-29T04:14:11;20.10;99.90
48206;DHT22;33995;48.202;16.260;2023-07-29T04:16:42;20.10;99.90
48206;DHT22;33995;48.202;16.260;2023-07-29T04:19:32;20.00;99.90
48206;DHT22;33995;48.202;16.260;2023-07-29T04:22:04;20.10;99.90
48206;DHT22;33995;48.202;16.260;2023-07-29T04:24:48;20.10;99.90
48206;DHT22;33995;48.202;16.260;2023-07-29T04:27:20;20.10;99.90
48206;DHT22;33995;48.202;16.260;2023-07-29T04:29:54;20.20;99.90
48206;DHT22;33995;48.202;16.260;2023-07-29T04:32:24;20.20;99.90
48206;DHT22;33995;48.202;16.260;2023-07-29T04:34:59;20.20;99.90
48206;DHT22;33995;48.202;16.260;2023-07-29T04:37:35;20.20;99.90
48206;DHT22;33995;48.202;16.260;2023-07-29T04:40:06;20.20;99.90
48206;DHT22;33995;48.202;16.260;2023-07-29T04:42:37;20.30;99.90
48206;DHT22;33995;48.202;16.260;2023-07-29T04:45:09;20.30;99.90
48206;DHT22;33995;48.202;16.260;2023-07-29T04:47:39;20.30;99.90
48206;DHT22;33995;48.202;16.260;2023-07-29T04:50:15;20.30;99.90
48206;DHT22;33995;48.202;16.260;2023-07-29T04:52:45;20.30;99.90
48206;DHT22;33995;48.202;16.260;2023-07-29T04:55:16;20.30;99.90
48206;DHT22;33995;48.202;16.260;2023-07-29T04:57:47;20.30;99.90
48206;DHT22;33995;48.202;16.260;2023-07-29T05:00:16;20.40;99.90
48206;DHT22;33995;48.202;16.260;2023-07-29T05:02:50;20.40;99.90
48206;DHT22;33995;48.202;16.260;2023-07-29T05:05:33;20.50;99.90
48206;DHT22;33995;48.202;16.260;2023-07-29T05:08:08;20.60;99.90
48206;DHT22;33995;48.202;16.260;2023-07-29T05:10:48;20.60;99.90
48206;DHT22;33995;48.202;16.260;2023-07-29T05:13:21;20.60;99.90
48206;DHT22;33995;48.202;16.260;2023-07-29T05:15:52;20.60;99.90
48206;DHT22;33995;48.202;16.260;2023-07-29T05:18:24;20.70;99.90
48206;DHT22;33995;48.202;16.260;2023-07-29T05:20:54;20.70;99.90
48206;DHT22;33995;48.202;16.260;2023-07-29T05:23:34;20.80;99.90
48206;DHT22;33995;48.202;16.260;2023-07-29T05:26:05;20.90;99.90
48206;DHT22;33995;48.202;16.260;2023-07-29T05:28:36;20.90;99.90
48206;DHT22;33995;48.202;16.260;2023-07-29T05:31:14;21.00;99.90
48206;DHT22;33995;48.202;16.260;2023-07-29T05:33:57;21.00;99.90
48206;DHT22;33995;48.202;16.260;2023-07-29T05:36:33;21.10;99.90
48206;DHT22;33995;48.202;16.260;2023-07-29T05:39:03;21.20;99.90
48206;DHT22;33995;48.202;16.260;2023-07-29T05:41:34;21.20;99.90
48206;DHT22;33995;48.202;16.260;2023-07-29T05:44:08;21.20;99.90
48206;DHT22;33995;48.202;16.260;2023-07-29T05:46:40;21.30;99.90
48206;DHT22;33995;48.202;16.260;2023-07-29T05:49:16;21.30;99.90
48206;DHT22;33995;48.202;16.260;2023-07-29T05:51:50;21.30;99.90
48206;DHT22;33995;48.202;16.260;2023-07-29T05:54:21;21.40;99.90
48206;DHT22;33995;48.202;16.260;2023-07-29T05:56:51;21.40;99.90
48206;DHT22;33995;48.202;16.260;2023-07-29T05:59:25;21.40;99.90
48206;DHT22;33995;48.202;16.260;2023-07-29T06:02:02;21.50;99.90
48206;DHT22;33995;48.202;16.260;2023-07-29T06:04:37;21.60;99.90
48206;DHT22;33995;48.202;16.260;2023-07-29T06:07:07;21.60;99.90
48206;DHT22;33995;48.202;16.260;2023-07-29T06:09:36;21.60;99.90
48206;DHT22;33995;48.202;16.260;2023-07-29T06:12:24;21.70;99.90
48206;DHT22;33995;48.202;16.260;2023-07-29T06:14:57;21.70;99.90
48206;DHT22;33995;48.202;16.260;2023-07-29T06:17:25;21.80;99.90
48206;DHT22;33995;48.202;16.260;2023-07-29T06:19:55;21.90;99.90
48206;DHT22;33995;48.202;16.260;2023-07-29T06:22:26;21.90;99.90
48206;DHT22;33995;48.202;16.260;2023-07-29T06:24:59;22.00;99.90
48206;DHT22;33995;48.202;16.260;2023-07-29T06:27:32;22.00;99.90
48206;DHT22;33995;48.202;16.260;2023-07-29T06:30:03;22.10;99.90
48206;DHT22;33995;48.202;16.260;2023-07-29T06:32:38;22.10;99.90
48206;DHT22;33995;48.202;16.260;2023-07-29T06:35:12;22.10;99.90
48206;DHT22;33995;48.202;16.260;2023-07-29T06:37:42;22.10;99.90
48206;DHT22;33995;48.202;16.260;2023-07-29T06:40:18;22.20;99.90
48206;DHT22;33995;48.202;16.260;2023-07-29T06:42:53;22.30;99.90
48206;DHT22;33995;48.202;16.260;2023-07-29T06:45:23;22.30;99.90
48206;DHT22;33995;48.202;16.260;2023-07-29T06:47:57;22.50;99.90
48206;DHT22;33995;48.202;16.260;2023-07-29T06:50:31;22.70;99.90
48206;DHT22;33995;48.202;16.260;2023-07-29T06:52:58;23.00;99.90
48206;DHT22;33995;48.202;16.260;2023-07-29T06:55:27;23.00;99.90
48206;DHT22;33995;48.202;16.260;2023-07-29T06:57:55;23.10;99.90
48206;DHT22;33995;48.202;16.260;2023-07-29T07:00:25;23.30;99.90
48206;DHT22;33995;48.202;16.260;2023-07-29T07:03:11;23.30;99.90
48206;DHT22;33995;48.202;16.260;2023-07-29T07:05:39;23.40;99.90
48206;DHT22;33995;48.202;16.260;2023-07-29T07:08:12;23.30;99.90
48206;DHT22;33995;48.202;16.260;2023-07-29T07:10:42;23.30;99.90
48206;DHT22;33995;48.202;16.260;2023-07-29T07:13:13;23.30;99.90
48206;DHT22;33995;48.202;16.260;2023-07-29T07:15:47;23.30;99.90
48206;DHT22;33995;48.202;16.260;2023-07-29T07:18:21;23.20;99.90
48206;DHT22;33995;48.202;16.260;2023-07-29T07:21:05;23.20;99.90
48206;DHT22;33995;48.202;16.260;2023-07-29T07:23:38;23.20;99.90
48206;DHT22;33995;48.202;16.260;2023-07-29T07:26:13;23.40;99.90
48206;DHT22;33995;48.202;16.260;2023-07-29T07:28:54;23.80;99.90
48206;DHT22;33995;48.202;16.260;2023-07-29T07:31:27;24.00;99.90
48206;DHT22;33995;48.202;16.260;2023-07-29T07:33:58;24.10;99.90
48206;DHT22;33995;48.202;16.260;2023-07-29T07:36:35;24.30;99.90
48206;DHT22;33995;48.202;16.260;2023-07-29T07:39:04;24.60;99.90
48206;DHT22;33995;48.202;16.260;2023-07-29T07:41:36;24.80;99.90
48206;DHT22;33995;48.202;16.260;2023-07-29T07:44:09;25.00;99.90
48206;DHT22;33995;48.202;16.260;2023-07-29T07:46:49;25.10;99.90
48206;DHT22;33995;48.202;16.260;2023-07-29T07:49:19;25.30;99.90
48206;DHT22;33995;48.202;16.260;2023-07-29T07:51:52;25.40;99.90
48206;DHT22;33995;48.202;16.260;2023-07-29T07:54:25;25.50;99.90
48206;DHT22;33995;48.202;16.260;2023-07-29T07:56:55;25.60;99.90
48206;DHT22;33995;48.202;16.260;2023-07-29T07:59:23;25.70;99.90
48206;DHT22;33995;48.202;16.260;2023-07-29T08:01:55;25.80;99.90
48206;DHT22;33995;48.202;16.260;2023-07-29T08:04:23;25.90;99.90
48206;DHT22;33995;48.202;16.260;2023-07-29T08:07:03;25.90;99.90
48206;DHT22;33995;48.202;16.260;2023-07-29T08:09:39;25.90;99.90
48206;DHT22;33995;48.202;16.260;2023-07-29T08:12:13;26.00;99.90
48206;DHT22;33995;48.202;16.260;2023-07-29T08:14:48;26.00;99.90
48206;DHT22;33995;48.202;16.260;2023-07-29T08:17:18;26.10;99.90
48206;DHT22;33995;48.202;16.260;2023-07-29T08:19:46;26.10;99.90
48206;DHT22;33995;48.202;16.260;2023-07-29T08:22:20;26.20;99.90
48206;DHT22;33995;48.202;16.260;2023-07-29T08:24:54;26.30;99.90
48206;DHT22;33995;48.202;16.260;2023-07-29T08:27:26;26.30;99.90
48206;DHT22;33995;48.202;16.260;2023-07-29T08:29:58;26.30;99.90
48206;DHT22;33995;48.202;16.260;2023-07-29T08:32:30;26.40;99.90
48206;DHT22;33995;48.202;16.260;2023-07-29T08:35:09;26.30;99.90
48206;DHT22;33995;48.202;16.260;2023-07-29T08:37:38;26.30;99.90
48206;DHT22;33995;48.202;16.260;2023-07-29T08:40:08;26.30;99.90
48206;DHT22;33995;48.202;16.260;2023-07-29T08:42:38;26.30;99.90
48206;DHT22;33995;48.202;16.260;2023-07-29T08:45:14;26.30;99.90
48206;DHT22;33995;48.202;16.260;2023-07-29T08:47:50;26.40;99.90
48206;DHT22;33995;48.202;16.260;2023-07-29T08:50:23;26.30;99.90
48206;DHT22;33995;48.202;16.260;2023-07-29T08:52:56;26.40;99.90
48206;DHT22;33995;48.202;16.260;2023-07-29T08:55:34;26.40;99.90
48206;DHT22;33995;48.202;16.260;2023-07-29T08:58:05;26.50;99.90
48206;DHT22;33995;48.202;16.260;2023-07-29T09:00:35;26.50;99.90
48206;DHT22;33995;48.202;16.260;2023-07-29T09:03:04;26.60;99.90
48206;DHT22;33995;48.202;16.260;2023-07-29T09:05:46;26.70;99.90
48206;DHT22;33995;48.202;16.260;2023-07-29T09:08:17;26.80;99.90
48206;DHT22;33995;48.202;16.260;2023-07-29T09:10:49;26.90;99.90
48206;DHT22;33995;48.202;16.260;2023-07-29T09:13:25;27.00;99.90
48206;DHT22;33995;48.202;16.260;2023-07-29T09:15:59;27.20;99.90
48206;DHT22;33995;48.202;16.260;2023-07-29T09:18:30;27.40;99.90
48206;DHT22;33995;48.202;16.260;2023-07-29T09:21:15;27.50;99.90
48206;DHT22;33995;48.202;16.260;2023-07-29T09:23:51;27.50;99.90
48206;DHT22;33995;48.202;16.260;2023-07-29T09:26:22;27.60;99.90
48206;DHT22;33995;48.202;16.260;2023-07-29T09:28:58;27.80;99.90
48206;DHT22;33995;48.202;16.260;2023-07-29T09:31:40;27.90;99.90
48206;DHT22;33995;48.202;16.260;2023-07-29T09:34:17;28.00;99.90
48206;DHT22;33995;48.202;16.260;2023-07-29T09:36:54;28.10;99.90
48206;DHT22;33995;48.202;16.260;2023-07-29T09:39:35;28.20;99.90
48206;DHT22;33995;48.202;16.260;2023-07-29T09:42:17;28.20;99.90
48206;DHT22;33995;48.202;16.260;2023-07-29T09:44:49;28.20;99.90
48206;DHT22;33995;48.202;16.260;2023-07-29T09:47:26;28.20;99.90
48206;DHT22;33995;48.202;16.260;2023-07-29T09:50:00;28.20;99.90
48206;DHT22;33995;48.202;16.260;2023-07-29T09:52:29;28.30;99.90
48206;DHT22;33995;48.202;16.260;2023-07-29T09:55:04;28.40;99.90
48206;DHT22;33995;48.202;16.260;2023-07-29T09:57:34;28.50;99.90
48206;DHT22;33995;48.202;16.260;2023-07-29T10:00:05;28.60;99.90
48206;DHT22;33995;48.202;16.260;2023-07-29T10:02:56;28.80;99.90
48206;DHT22;33995;48.202;16.260;2023-07-29T10:05:29;28.80;99.90
48206;DHT22;33995;48.202;16.260;2023-07-29T10:07:59;28.90;99.90
48206;DHT22;33995;48.202;16.260;2023-07-29T10:10:36;28.90;99.90
48206;DHT22;33995;48.202;16.260;2023-07-29T10:13:06;28.90;99.90
48206;DHT22;33995;48.202;16.260;2023-07-29T10:15:42;29.00;99.90
48206;DHT22;33995;48.202;16.260;2023-07-29T10:18:18;28.90;99.90
48206;DHT22;33995;48.202;16.260;2023-07-29T10:20:50;29.00;99.90
48206;DHT22;33995;48.202;16.260;2023-07-29T10:23:24;29.10;99.90
48206;DHT22;33995;48.202;16.260;2023-07-29T10:26:10;29.20;99.70
48206;DHT22;33995;48.202;16.260;2023-07-29T10:28:54;29.30;99.90
48206;DHT22;33995;48.202;16.260;2023-07-29T10:31:31;29.40;99.30
48206;DHT22;33995;48.202;16.260;2023-07-29T10:34:02;29.60;99.00
48206;DHT22;33995;48.202;16.260;2023-07-29T10:36:47;29.50;98.20
48206;DHT22;33995;48.202;16.260;2023-07-29T10:39:25;29.40;98.50
48206;DHT22;33995;48.202;16.260;2023-07-29T10:42:01;29.40;98.60
48206;DHT22;33995;48.202;16.260;2023-07-29T10:47:15;29.70;97.80
48206;DHT22;33995;48.202;16.260;2023-07-29T10:49:44;29.60;97.90
48206;DHT22;33995;48.202;16.260;2023-07-29T10:52:29;29.50;98.30
48206;DHT22;33995;48.202;16.260;2023-07-29T10:55:03;29.70;97.90
48206;DHT22;33995;48.202;16.260;2023-07-29T10:58:07;29.90;97.90
48206;DHT22;33995;48.202;16.260;2023-07-29T11:00:42;30.00;97.40
48206;DHT22;33995;48.202;16.260;2023-07-29T11:03:14;30.10;97.40
48206;DHT22;33995;48.202;16.260;2023-07-29T11:05:55;30.20;97.00
48206;DHT22;33995;48.202;16.260;2023-07-29T11:08:29;30.10;98.90
48206;DHT22;33995;48.202;16.260;2023-07-29T11:11:12;29.70;98.00
48206;DHT22;33995;48.202;16.260;2023-07-29T11:13:44;29.60;96.80
48206;DHT22;33995;48.202;16.260;2023-07-29T11:16:20;29.40;96.70
48206;DHT22;33995;48.202;16.260;2023-07-29T11:18:54;29.40;98.00
48206;DHT22;33995;48.202;16.260;2023-07-29T11:21:26;29.20;99.20
48206;DHT22;33995;48.202;16.260;2023-07-29T11:23:56;29.20;97.50
48206;DHT22;33995;48.202;16.260;2023-07-29T11:26:31;29.10;97.60
48206;DHT22;33995;48.202;16.260;2023-07-29T11:29:02;29.00;97.50
48206;DHT22;33995;48.202;16.260;2023-07-29T11:31:43;29.00;97.50
48206;DHT22;33995;48.202;16.260;2023-07-29T11:34:34;29.00;98.00
48206;DHT22;33995;48.202;16.260;2023-07-29T11:37:06;28.90;97.40
48206;DHT22;33995;48.202;16.260;2023-07-29T11:39:41;28.80;98.60
48206;DHT22;33995;48.202;16.260;2023-07-29T11:42:14;28.80;97.30
48206;DHT22;33995;48.202;16.260;2023-07-29T11:44:45;29.10;97.00
48206;DHT22;33995;48.202;16.260;2023-07-29T11:47:21;29.40;96.30
48206;DHT22;33995;48.202;16.260;2023-07-29T11:49:52;29.50;96.20
48206;DHT22;33995;48.202;16.260;2023-07-29T11:52:27;29.80;95.70
48206;DHT22;33995;48.202;16.260;2023-07-29T11:55:04;29.80;95.10
48206;DHT22;33995;48.202;16.260;2023-07-29T11:57:39;29.70;95.60
48206;DHT22;33995;48.202;16.260;2023-07-29T12:00:11;29.60;95.80
48206;DHT22;33995;48.202;16.260;2023-07-29T12:02:47;29.50;95.70
48206;DHT22;33995;48.202;16.260;2023-07-29T12:05:24;29.50;95.90
48206;DHT22;33995;48.202;16.260;2023-07-29T12:07:56;29.80;95.70
48206;DHT22;33995;48.202;16.260;2023-07-29T12:10:25;29.90;95.60
48206;DHT22;33995;48.202;16.260;2023-07-29T12:13:00;29.80;96.10
48206;DHT22;33995;48.202;16.260;2023-07-29T12:15:39;29.70;96.00
48206;DHT22;33995;48.202;16.260;2023-07-29T12:18:09;29.60;96.30
48206;DHT22;33995;48.202;16.260;2023-07-29T12:20:41;29.70;96.10
48206;DHT22;33995;48.202;16.260;2023-07-29T12:23:08;30.00;95.90
48206;DHT22;33995;48.202;16.260;2023-07-29T12:25:45;30.20;95.90
48206;DHT22;33995;48.202;16.260;2023-07-29T12:28:17;30.40;96.10
48206;DHT22;33995;48.202;16.260;2023-07-29T12:30:48;30.50;95.60
48206;DHT22;33995;48.202;16.260;2023-07-29T12:33:35;30.50;95.40
48206;DHT22;33995;48.202;16.260;2023-07-29T12:36:14;30.60;95.40
48206;DHT22;33995;48.202;16.260;2023-07-29T12:38:47;30.70;95.40
48206;DHT22;33995;48.202;16.260;2023-07-29T12:41:17;30.70;95.50
48206;DHT22;33995;48.202;16.260;2023-07-29T12:43:49;30.50;95.60
48206;DHT22;33995;48.202;16.260;2023-07-29T12:46:17;30.50;94.50
48206;DHT22;33995;48.202;16.260;2023-07-29T12:48:49;30.30;94.50
48206;DHT22;33995;48.202;16.260;2023-07-29T12:51:20;30.10;94.60
48206;DHT22;33995;48.202;16.260;2023-07-29T12:53:51;29.90;95.30
48206;DHT22;33995;48.202;16.260;2023-07-29T12:56:20;29.70;95.50
48206;DHT22;33995;48.202;16.260;2023-07-29T12:58:53;29.60;95.90
48206;DHT22;33995;48.202;16.260;2023-07-29T13:01:27;29.60;95.80
48206;DHT22;33995;48.202;16.260;2023-07-29T13:03:55;29.80;95.60
48206;DHT22;33995;48.202;16.260;2023-07-29T13:06:24;29.80;93.60
48206;DHT22;33995;48.202;16.260;2023-07-29T13:08:58;29.60;93.40
48206;DHT22;33995;48.202;16.260;2023-07-29T13:11:34;29.40;94.40
48206;DHT22;33995;48.202;16.260;2023-07-29T13:14:03;29.30;93.50
48206;DHT22;33995;48.202;16.260;2023-07-29T13:16:36;29.00;93.80
48206;DHT22;33995;48.202;16.260;2023-07-29T13:19:11;28.70;95.80
48206;DHT22;33995;48.202;16.260;2023-07-29T13:21:42;28.70;94.50
48206;DHT22;33995;48.202;16.260;2023-07-29T13:24:10;28.70;94.60
48206;DHT22;33995;48.202;16.260;2023-07-29T13:26:42;28.60;97.50
48206;DHT22;33995;48.202;16.260;2023-07-29T13:29:09;28.50;96.00
48206;DHT22;33995;48.202;16.260;2023-07-29T13:31:41;28.40;95.40
48206;DHT22;33995;48.202;16.260;2023-07-29T13:34:16;28.30;96.30
48206;DHT22;33995;48.202;16.260;2023-07-29T13:36:48;28.30;96.70
48206;DHT22;33995;48.202;16.260;2023-07-29T13:39:18;28.30;96.00
48206;DHT22;33995;48.202;16.260;2023-07-29T13:41:47;28.50;97.50
48206;DHT22;33995;48.202;16.260;2023-07-29T13:44:18;28.50;96.70
48206;DHT22;33995;48.202;16.260;2023-07-29T13:46:53;28.50;96.10
48206;DHT22;33995;48.202;16.260;2023-07-29T13:49:23;28.50;96.70
48206;DHT22;33995;48.202;16.260;2023-07-29T13:51:53;28.40;96.90
48206;DHT22;33995;48.202;16.260;2023-07-29T13:54:30;28.40;97.10
48206;DHT22;33995;48.202;16.260;2023-07-29T13:57:02;28.50;97.40
48206;DHT22;33995;48.202;16.260;2023-07-29T13:59:39;28.40;97.10
48206;DHT22;33995;48.202;16.260;2023-07-29T14:02:16;28.40;97.00
48206;DHT22;33995;48.202;16.260;2023-07-29T14:04:46;28.30;97.20
48206;DHT22;33995;48.202;16.260;2023-07-29T14:07:17;28.40;97.40
48206;DHT22;33995;48.202;16.260;2023-07-29T14:09:48;28.50;97.30
48206;DHT22;33995;48.202;16.260;2023-07-29T14:12:22;28.70;97.30
48206;DHT22;33995;48.202;16.260;2023-07-29T14:15:00;28.80;97.20
48206;DHT22;33995;48.202;16.260;2023-07-29T14:17:31;28.90;97.00
48206;DHT22;33995;48.202;16.260;2023-07-29T14:20:02;29.10;96.90
48206;DHT22;33995;48.202;16.260;2023-07-29T14:22:46;29.10;96.80
48206;DHT22;33995;48.202;16.260;2023-07-29T14:25:16;29.20;96.80
48206;DHT22;33995;48.202;16.260;2023-07-29T14:27:49;29.30;96.40
48206;DHT22;33995;48.202;16.260;2023-07-29T14:30:21;29.30;96.30
48206;DHT22;33995;48.202;16.260;2023-07-29T14:32:54;29.30;96.00
48206;DHT22;33995;48.202;16.260;2023-07-29T14:35:27;29.30;95.80
48206;DHT22;33995;48.202;16.260;2023-07-29T14:37:56;29.30;95.70
48206;DHT22;33995;48.202;16.260;2023-07-29T14:40:25;29.30;95.70
48206;DHT22;33995;48.202;16.260;2023-07-29T14:43:02;29.30;95.90
48206;DHT22;33995;48.202;16.260;2023-07-29T14:45:39;29.20;95.80
48206;DHT22;33995;48.202;16.260;2023-07-29T14:48:12;29.20;95.70
48206;DHT22;33995;48.202;16.260;2023-07-29T14:50:44;29.20;96.30
48206;DHT22;33995;48.202;16.260;2023-07-29T14:53:12;29.00;98.70
48206;DHT22;33995;48.202;16.260;2023-07-29T14:55:40;28.80;98.40
48206;DHT22;33995;48.202;16.260;2023-07-29T14:58:16;28.70;97.80
48206;DHT22;33995;48.202;16.260;2023-07-29T15:00:52;28.60;98.10
48206;DHT22;33995;48.202;16.260;2023-07-29T15:03:24;28.50;98.10
48206;DHT22;33995;48.202;16.260;2023-07-29T15:05:56;28.40;98.70
48206;DHT22;33995;48.202;16.260;2023-07-29T15:08:28;28.30;97.40
48206;DHT22;33995;48.202;16.260;2023-07-29T15:10:59;28.20;97.60
48206;DHT22;33995;48.202;16.260;2023-07-29T15:13:27;28.20;97.50
48206;DHT22;33995;48.202;16.260;2023-07-29T15:16:03;28.10;97.00
48206;DHT22;33995;48.202;16.260;2023-07-29T15:18:33;28.10;97.30
48206;DHT22;33995;48.202;16.260;2023-07-29T15:21:05;28.10;97.40
48206;DHT22;33995;48.202;16.260;2023-07-29T15:23:36;28.20;97.50
48206;DHT22;33995;48.202;16.260;2023-07-29T15:26:09;28.20;97.80
48206;DHT22;33995;48.202;16.260;2023-07-29T15:28:45;28.20;97.80
48206;DHT22;33995;48.202;16.260;2023-07-29T15:31:23;28.20;97.80
48206;DHT22;33995;48.202;16.260;2023-07-29T15:34:03;28.30;98.50
48206;DHT22;33995;48.202;16.260;2023-07-29T15:36:33;28.20;99.10
48206;DHT22;33995;48.202;16.260;2023-07-29T15:39:04;28.10;98.70
48206;DHT22;33995;48.202;16.260;2023-07-29T15:41:34;28.00;98.70
48206;DHT22;33995;48.202;16.260;2023-07-29T15:44:13;27.90;99.20
48206;DHT22;33995;48.202;16.260;2023-07-29T15:46:44;28.00;98.80
48206;DHT22;33995;48.202;16.260;2023-07-29T15:49:18;28.00;99.10
48206;DHT22;33995;48.202;16.260;2023-07-29T15:51:58;28.00;98.80
48206;DHT22;33995;48.202;16.260;2023-07-29T15:54:31;28.10;98.90
48206;DHT22;33995;48.202;16.260;2023-07-29T15:56:59;28.10;99.00
48206;DHT22;33995;48.202;16.260;2023-07-29T15:59:30;28.20;98.80
48206;DHT22;33995;48.202;16.260;2023-07-29T16:01:58;28.20;98.90
48206;DHT22;33995;48.202;16.260;2023-07-29T16:04:37;28.10;98.80
48206;DHT22;33995;48.202;16.260;2023-07-29T16:07:06;28.10;98.50